createdAt,value
2023-02-19T00:00:49.964Z,100.00
2023-02-19T00:03:58.987Z,100.00
2023-02-19T00:07:01.701Z,100.00
2023-02-19T00:10:04.843Z,100.00
2023-02-19T00:13:08.848Z,100.00
2023-02-19T00:16:18.281Z,100.00
2023-02-19T00:19:21.593Z,100.00
2023-02-19T00:22:24.799Z,100.00
2023-02-19T00:25:27.486Z,100.00
2023-02-19T00:28:30.560Z,100.00
2023-02-19T00:31:35.514Z,100.00
2023-02-19T00:34:38.635Z,100.00
2023-02-19T00:37:41.245Z,100.00
2023-02-19T00:40:44.283Z,100.00
2023-02-19T00:44:00.450Z,100.00
2023-02-19T00:47:03.555Z,100.00
2023-02-19T00:50:06.790Z,100.00
2023-02-19T00:53:10.009Z,100.00
2023-02-19T00:56:12.892Z,100.00
2023-02-19T00:59:16.101Z,100.00
2023-02-19T01:02:19.252Z,100.00
2023-02-19T01:05:22.252Z,100.00
2023-02-19T01:08:25.305Z,100.00
2023-02-19T01:11:28.420Z,100.00
2023-02-19T01:14:31.156Z,100.00
2023-02-19T01:17:36.524Z,100.00
2023-02-19T01:20:44.729Z,100.00
2023-02-19T01:23:49.076Z,100.00
2023-02-19T01:26:51.774Z,100.00
2023-02-19T01:29:54.781Z,100.00
2023-02-19T01:32:57.571Z,100.00
2023-02-19T01:36:03.755Z,100.00
2023-02-19T01:39:07.227Z,100.00
2023-02-19T01:42:17.057Z,100.00
2023-02-19T01:45:25.184Z,100.00
2023-02-19T01:48:36.887Z,100.00
2023-02-19T01:52:04.181Z,100.00
2023-02-19T01:55:10.870Z,100.00
2023-02-19T01:58:15.765Z,100.00
2023-02-19T02:01:18.892Z,100.00
2023-02-19T02:04:21.951Z,100.00
2023-02-19T02:07:43.235Z,100.00
2023-02-19T02:10:47.665Z,100.00
2023-02-19T02:13:51.616Z,100.00
2023-02-19T02:17:15.887Z,100.00
2023-02-19T02:20:44.510Z,100.00
2023-02-19T02:24:05.475Z,100.00
2023-02-19T02:27:53.664Z,100.00
2023-02-19T02:31:02.781Z,100.00
2023-02-19T02:34:20.741Z,100.00
2023-02-19T02:37:27.136Z,100.00
2023-02-19T02:40:30.692Z,100.00
2023-02-19T02:43:33.994Z,100.00
2023-02-19T02:46:41.718Z,100.00
2023-02-19T02:50:05.221Z,100.00
2023-02-19T02:53:53.167Z,100.00
2023-02-19T02:56:57.932Z,100.00
2023-02-19T03:00:01.775Z,100.00
2023-02-19T03:03:05.540Z,100.00
2023-02-19T03:06:12.567Z,100.00
2023-02-19T03:09:30.282Z,100.00
2023-02-19T03:12:57.305Z,100.00
2023-02-19T03:16:27.176Z,100.00
2023-02-19T03:19:34.571Z,100.00
2023-02-19T03:22:38.824Z,100.00
2023-02-19T03:26:01.636Z,100.00
2023-02-19T03:29:23.313Z,100.00
2023-02-19T03:32:45.655Z,100.00
2023-02-19T03:36:00.809Z,100.00
2023-02-19T03:39:07.234Z,100.00
2023-02-19T03:42:18.043Z,100.00
2023-02-19T03:45:30.056Z,100.00
2023-02-19T03:48:38.650Z,100.00
2023-02-19T03:51:48.651Z,100.00
2023-02-19T03:55:12.330Z,100.00
2023-02-19T03:58:35.593Z,100.00
2023-02-19T04:01:44.690Z,100.00
2023-02-19T04:04:56.484Z,100.00
2023-02-19T04:08:06.346Z,100.00
2023-02-19T04:11:12.192Z,100.00
2023-02-19T04:14:21.005Z,100.00
2023-02-19T04:17:29.589Z,100.00
2023-02-19T04:20:36.851Z,100.00
2023-02-19T04:23:44.667Z,100.00
2023-02-19T04:26:48.219Z,100.00
2023-02-19T04:29:51.223Z,100.00
2023-02-19T04:32:54.048Z,100.00
2023-02-19T04:35:57.028Z,100.00
2023-02-19T04:39:00.043Z,100.00
2023-02-19T04:42:04.448Z,100.00
2023-02-19T04:45:07.536Z,100.00
2023-02-19T04:48:10.704Z,100.00
2023-02-19T04:51:13.707Z,100.00
2023-02-19T04:54:16.724Z,100.00
2023-02-19T04:57:19.573Z,100.00
2023-02-19T05:00:22.681Z,100.00
2023-02-19T05:03:25.655Z,100.00
2023-02-19T05:06:28.766Z,100.00
2023-02-19T05:09:32.687Z,100.00
2023-02-19T05:12:35.734Z,100.00
2023-02-19T05:15:38.437Z,100.00
2023-02-19T05:18:43.109Z,100.00
2023-02-19T05:21:45.831Z,100.00
2023-02-19T05:24:48.845Z,100.00
2023-02-19T05:28:11.595Z,100.00
2023-02-19T05:31:15.236Z,100.00
2023-02-19T05:34:17.976Z,100.00
2023-02-19T05:37:20.917Z,100.00
2023-02-19T05:40:26.130Z,100.00
2023-02-19T05:43:29.098Z,100.00
2023-02-19T05:46:32.009Z,100.00
2023-02-19T05:49:35.284Z,100.00
2023-02-19T05:52:37.983Z,100.00
2023-02-19T05:55:40.931Z,100.00
2023-02-19T05:58:43.661Z,100.00
2023-02-19T06:01:47.452Z,100.00
2023-02-19T06:04:50.416Z,100.00
2023-02-19T06:07:53.041Z,100.00
2023-02-19T06:10:56.130Z,100.00
2023-02-19T06:13:59.080Z,100.00
2023-02-19T06:17:02.109Z,100.00
2023-02-19T06:20:05.606Z,100.00
2023-02-19T06:23:08.633Z,100.00
2023-02-19T06:26:20.185Z,100.00
2023-02-19T06:29:23.188Z,100.00
2023-02-19T06:32:26.008Z,100.00
2023-02-19T06:35:29.026Z,100.00
2023-02-19T06:38:31.916Z,100.00
2023-02-19T06:41:35.340Z,100.00
2023-02-19T06:44:38.076Z,100.00
2023-02-19T06:47:41.020Z,100.00
2023-02-19T06:50:43.710Z,100.00
2023-02-19T06:53:46.796Z,100.00
2023-02-19T06:56:49.403Z,100.00
2023-02-19T06:59:52.421Z,100.00
2023-02-19T07:02:56.716Z,100.00
2023-02-19T07:06:00.940Z,100.00
2023-02-19T07:09:05.338Z,100.00
2023-02-19T07:12:08.430Z,100.00
2023-02-19T07:15:11.079Z,100.00
2023-02-19T07:18:14.062Z,100.00
2023-02-19T07:21:18.097Z,100.00
2023-02-19T07:24:22.468Z,100.00
2023-02-19T07:27:25.089Z,100.00
2023-02-19T07:30:28.211Z,100.00
2023-02-19T07:33:31.163Z,100.00
2023-02-19T07:36:34.150Z,100.00
2023-02-19T07:39:37.278Z,100.00
2023-02-19T07:42:40.428Z,100.00
2023-02-19T07:45:43.119Z,100.00
2023-02-19T07:48:46.541Z,100.00
2023-02-19T07:51:49.304Z,100.00
2023-02-19T07:54:52.333Z,100.00
2023-02-19T07:57:55.231Z,100.00
2023-02-19T08:00:58.393Z,100.00
2023-02-19T08:04:01.409Z,100.00
2023-02-19T08:07:05.438Z,100.00
2023-02-19T08:10:27.897Z,100.00
2023-02-19T08:13:31.932Z,100.00
2023-02-19T08:16:42.962Z,100.00
2023-02-19T08:19:46.078Z,100.00
2023-02-19T08:22:49.212Z,100.00
2023-02-19T08:25:53.461Z,100.00
2023-02-19T08:28:56.490Z,100.00
2023-02-19T08:31:59.199Z,100.00
2023-02-19T08:35:02.163Z,100.00
2023-02-19T08:38:06.476Z,100.00
2023-02-19T08:41:12.824Z,100.00
2023-02-19T08:44:16.110Z,100.00
2023-02-19T08:47:19.105Z,100.00
2023-02-19T08:50:22.487Z,100.00
2023-02-19T08:53:25.829Z,100.00
2023-02-19T08:56:28.729Z,100.00
2023-02-19T08:59:32.234Z,100.00
2023-02-19T09:02:35.673Z,100.00
2023-02-19T09:05:39.672Z,100.00
2023-02-19T09:08:42.588Z,100.00
2023-02-19T09:11:47.395Z,100.00
2023-02-19T09:14:51.283Z,100.00
2023-02-19T09:17:54.259Z,100.00
2023-02-19T09:21:04.772Z,100.00
2023-02-19T09:24:09.408Z,99.96
2023-02-19T09:27:18.022Z,99.00
2023-02-19T09:30:21.436Z,97.70
2023-02-19T09:33:24.201Z,96.85
2023-02-19T09:36:27.347Z,96.49
2023-02-19T09:39:30.004Z,95.87
2023-02-19T09:42:33.452Z,95.03
2023-02-19T09:45:38.212Z,94.49
2023-02-19T09:48:41.292Z,93.22
2023-02-19T09:51:56.543Z,93.91
2023-02-19T09:55:24.416Z,92.96
2023-02-19T09:58:32.238Z,92.99
2023-02-19T10:01:39.258Z,91.88
2023-02-19T10:04:44.299Z,90.60
2023-02-19T10:07:50.971Z,88.85
2023-02-19T10:10:54.937Z,87.51
2023-02-19T10:14:13.691Z,86.67
2023-02-19T10:17:24.555Z,87.66
2023-02-19T10:20:28.575Z,88.06
2023-02-19T10:23:32.501Z,86.79
2023-02-19T10:26:36.847Z,87.62
2023-02-19T10:29:40.132Z,92.30
2023-02-19T10:32:59.861Z,91.72
2023-02-19T10:36:06.751Z,91.11
2023-02-19T10:39:35.655Z,86.27
2023-02-19T10:42:46.461Z,85.70
2023-02-19T10:45:50.559Z,83.19
2023-02-19T10:49:04.116Z,80.99
2023-02-19T10:52:18.813Z,78.43
2023-02-19T10:55:30.884Z,76.93
2023-02-19T10:58:37.880Z,77.96
2023-02-19T11:01:56.268Z,78.44
2023-02-19T11:05:09.351Z,76.64
2023-02-19T11:08:22.134Z,77.70
2023-02-19T11:11:37.106Z,78.48
2023-02-19T11:14:45.119Z,77.22
2023-02-19T11:18:14.622Z,78.59
2023-02-19T11:21:33.098Z,79.01
2023-02-19T11:24:38.404Z,77.48
2023-02-19T11:28:07.448Z,75.66
2023-02-19T11:31:35.447Z,77.04
2023-02-19T11:34:39.239Z,76.32
2023-02-19T11:38:00.536Z,76.34
2023-02-19T11:41:14.109Z,77.44
2023-02-19T11:44:19.940Z,77.40
2023-02-19T11:48:00.829Z,77.38
2023-02-19T11:51:15.931Z,76.95
2023-02-19T11:54:34.081Z,79.26
2023-02-19T11:57:51.563Z,79.91
2023-02-19T12:01:22.061Z,79.06
2023-02-19T12:04:46.704Z,79.71
2023-02-19T12:07:52.174Z,78.69
2023-02-19T12:11:20.205Z,79.50
2023-02-19T12:14:41.104Z,80.35
2023-02-19T12:17:44.077Z,80.48
2023-02-19T12:20:51.818Z,80.23
2023-02-19T12:24:08.368Z,80.33
2023-02-19T12:27:11.071Z,80.38
2023-02-19T12:30:33.579Z,80.72
2023-02-19T12:34:15.368Z,79.64
2023-02-19T12:37:27.509Z,79.76
2023-02-19T12:40:49.349Z,79.62
2023-02-19T12:44:01.773Z,78.17
2023-02-19T12:47:06.995Z,78.86
2023-02-19T12:50:23.712Z,76.99
2023-02-19T12:53:47.616Z,76.32
2023-02-19T12:57:08.918Z,72.68
2023-02-19T13:00:29.616Z,69.12
2023-02-19T13:03:39.459Z,69.65
2023-02-19T13:07:09.631Z,70.54
2023-02-19T13:10:40.062Z,69.63
2023-02-19T13:14:09.198Z,69.25
2023-02-19T13:17:35.866Z,69.11
2023-02-19T13:20:42.429Z,67.55
2023-02-19T13:24:02.963Z,67.51
2023-02-19T13:27:21.043Z,69.00
2023-02-19T13:31:03.393Z,69.51
2023-02-19T13:34:15.433Z,69.11
2023-02-19T13:37:19.467Z,70.00
2023-02-19T13:40:39.408Z,70.55
2023-02-19T13:43:43.514Z,71.92
2023-02-19T13:46:48.292Z,73.31
2023-02-19T13:49:52.289Z,72.42
2023-02-19T13:52:56.560Z,73.34
2023-02-19T13:55:59.895Z,71.33
2023-02-19T13:59:25.276Z,69.16
2023-02-19T14:02:31.889Z,69.92
2023-02-19T14:06:01.906Z,68.11
2023-02-19T14:09:04.629Z,68.80
2023-02-19T14:12:07.754Z,67.98
2023-02-19T14:15:25.701Z,68.41
2023-02-19T14:18:43.582Z,68.14
2023-02-19T14:21:46.556Z,67.92
2023-02-19T14:24:50.116Z,68.34
2023-02-19T14:27:55.201Z,68.72
2023-02-19T14:31:26.913Z,68.91
2023-02-19T14:34:30.105Z,66.67
2023-02-19T14:37:34.150Z,66.53
2023-02-19T14:40:41.741Z,65.59
2023-02-19T14:43:49.313Z,65.34
2023-02-19T14:47:05.121Z,62.45
2023-02-19T14:50:19.853Z,59.91
2023-02-19T14:53:24.728Z,57.84
2023-02-19T14:56:33.420Z,57.34
2023-02-19T14:59:36.392Z,56.34
2023-02-19T15:02:43.225Z,55.95
2023-02-19T15:05:46.145Z,56.25
2023-02-19T15:08:58.239Z,56.86
2023-02-19T15:12:02.872Z,57.10
2023-02-19T15:15:07.250Z,57.15
2023-02-19T15:18:25.803Z,57.24
2023-02-19T15:21:32.992Z,57.58
2023-02-19T15:24:36.410Z,58.23
2023-02-19T15:27:39.894Z,58.59
2023-02-19T15:30:43.140Z,59.25
2023-02-19T15:33:52.601Z,60.08
2023-02-19T15:37:02.164Z,61.03
2023-02-19T15:40:07.714Z,61.95
2023-02-19T15:43:25.173Z,62.94
2023-02-19T15:46:28.935Z,63.77
2023-02-19T15:49:46.807Z,64.47
2023-02-19T15:53:05.420Z,65.56
2023-02-19T15:56:15.842Z,65.47
2023-02-19T15:59:31.804Z,66.17
2023-02-19T16:02:35.984Z,66.33
2023-02-19T16:05:41.832Z,66.97
2023-02-19T16:09:07.187Z,66.92
2023-02-19T16:12:22.743Z,67.44
2023-02-19T16:15:27.316Z,69.16
2023-02-19T16:18:31.265Z,67.93
2023-02-19T16:21:34.272Z,68.20
2023-02-19T16:24:45.323Z,68.45
2023-02-19T16:27:48.282Z,68.53
2023-02-19T16:30:58.953Z,68.63
2023-02-19T16:34:18.737Z,68.55
2023-02-19T16:37:35.525Z,68.77
2023-02-19T16:40:54.355Z,68.74
2023-02-19T16:43:57.664Z,68.55
2023-02-19T16:47:06.139Z,68.54
2023-02-19T16:50:16.367Z,67.49
2023-02-19T16:53:22.258Z,66.06
2023-02-19T16:56:25.859Z,65.97
2023-02-19T16:59:28.631Z,65.82
2023-02-19T17:02:33.430Z,66.34
2023-02-19T17:05:37.766Z,65.81
2023-02-19T17:08:44.273Z,66.26
2023-02-19T17:11:47.363Z,66.41
2023-02-19T17:14:50.660Z,67.19
2023-02-19T17:17:53.628Z,67.90
2023-02-19T17:21:15.535Z,68.36
2023-02-19T17:24:18.877Z,69.95
2023-02-19T17:27:22.911Z,72.07
2023-02-19T17:30:30.334Z,73.61
2023-02-19T17:33:33.354Z,74.51
2023-02-19T17:36:38.021Z,76.01
2023-02-19T17:39:41.050Z,77.37
2023-02-19T17:42:44.416Z,78.39
2023-02-19T17:45:47.732Z,79.62
2023-02-19T17:48:51.114Z,80.78
2023-02-19T17:51:54.639Z,81.79
2023-02-19T17:54:58.076Z,83.69
2023-02-19T17:58:01.392Z,87.79
2023-02-19T18:01:04.623Z,90.52
2023-02-19T18:04:08.009Z,92.54
2023-02-19T18:07:14.264Z,94.34
2023-02-19T18:10:19.719Z,95.78
2023-02-19T18:13:22.824Z,97.38
2023-02-19T18:16:26.443Z,98.97
2023-02-19T18:19:29.420Z,99.52
2023-02-19T18:22:32.586Z,99.99
2023-02-19T18:25:35.621Z,100.00
2023-02-19T18:28:40.028Z,100.00
2023-02-19T18:31:43.086Z,100.00
2023-02-19T18:34:52.283Z,100.00
2023-02-19T18:37:55.953Z,100.00
2023-02-19T18:40:59.529Z,100.00
2023-02-19T18:44:03.259Z,100.00
2023-02-19T18:47:08.030Z,100.00
2023-02-19T18:50:11.586Z,100.00
2023-02-19T18:53:15.100Z,100.00
2023-02-19T18:56:18.288Z,100.00
2023-02-19T18:59:21.985Z,100.00
2023-02-19T19:02:25.098Z,100.00
2023-02-19T19:05:28.536Z,100.00
2023-02-19T19:08:32.688Z,100.00
2023-02-19T19:11:36.378Z,100.00
2023-02-19T19:14:39.668Z,100.00
2023-02-19T19:17:45.764Z,100.00
2023-02-19T19:20:49.224Z,100.00
2023-02-19T19:23:52.581Z,100.00
2023-02-19T19:26:55.590Z,100.00
2023-02-19T19:29:59.095Z,100.00
2023-02-19T19:33:03.588Z,100.00
2023-02-19T19:36:07.489Z,100.00
2023-02-19T19:39:10.662Z,100.00
2023-02-19T19:42:13.628Z,100.00
2023-02-19T19:45:16.556Z,100.00
2023-02-19T19:48:20.304Z,100.00
2023-02-19T19:51:23.526Z,100.00
2023-02-19T19:54:27.498Z,100.00
2023-02-19T19:57:30.499Z,100.00
2023-02-19T20:00:34.747Z,100.00
2023-02-19T20:03:41.135Z,100.00
2023-02-19T20:06:44.126Z,100.00
2023-02-19T20:09:49.128Z,100.00
2023-02-19T20:12:52.058Z,100.00
2023-02-19T20:15:56.380Z,100.00
2023-02-19T20:18:59.096Z,100.00
2023-02-19T20:22:02.458Z,100.00
2023-02-19T20:25:05.551Z,100.00
2023-02-19T20:28:08.843Z,100.00
2023-02-19T20:31:12.255Z,100.00
2023-02-19T20:34:16.544Z,100.00
2023-02-19T20:37:19.514Z,100.00
2023-02-19T20:40:27.448Z,100.00
2023-02-19T20:43:30.468Z,100.00
2023-02-19T20:46:33.732Z,100.00
2023-02-19T20:49:37.049Z,100.00
2023-02-19T20:52:40.328Z,100.00
2023-02-19T20:55:43.232Z,100.00
2023-02-19T20:58:46.210Z,100.00
2023-02-19T21:01:49.517Z,100.00
2023-02-19T21:04:52.876Z,100.00
2023-02-19T21:07:55.877Z,100.00
2023-02-19T21:10:59.153Z,100.00
2023-02-19T21:14:02.328Z,100.00
2023-02-19T21:17:06.056Z,100.00
2023-02-19T21:20:10.452Z,100.00
2023-02-19T21:23:15.018Z,100.00
2023-02-19T21:26:18.051Z,100.00
2023-02-19T21:29:22.905Z,100.00
2023-02-19T21:32:25.876Z,100.00
2023-02-19T21:35:29.341Z,100.00
2023-02-19T21:38:32.783Z,100.00
2023-02-19T21:41:36.352Z,100.00
2023-02-19T21:44:39.066Z,100.00
2023-02-19T21:47:43.166Z,100.00
2023-02-19T21:50:46.050Z,100.00
2023-02-19T21:53:49.673Z,100.00
2023-02-19T21:56:53.880Z,100.00
2023-02-19T21:59:56.844Z,100.00
2023-02-19T22:02:59.679Z,100.00
2023-02-19T22:06:02.715Z,100.00
2023-02-19T22:09:06.611Z,100.00
2023-02-19T22:12:09.577Z,100.00
2023-02-19T22:15:12.350Z,100.00
2023-02-19T22:18:15.400Z,100.00
2023-02-19T22:21:19.059Z,100.00
2023-02-19T22:24:22.910Z,100.00
2023-02-19T22:27:25.672Z,100.00
2023-02-19T22:30:29.549Z,99.61
2023-02-19T22:33:32.271Z,99.01
2023-02-19T22:36:39.089Z,98.44
2023-02-19T22:39:41.971Z,98.57
2023-02-19T22:42:45.105Z,96.58
2023-02-19T22:45:47.986Z,95.44
2023-02-19T22:48:51.358Z,94.98
2023-02-19T22:52:01.158Z,94.33
2023-02-19T22:55:04.372Z,93.53
2023-02-19T22:58:07.068Z,93.81
2023-02-19T23:01:12.283Z,94.38
2023-02-19T23:04:15.700Z,94.78
2023-02-19T23:07:18.648Z,94.57
2023-02-19T23:10:21.456Z,94.33
2023-02-19T23:13:24.477Z,93.93
2023-02-19T23:16:27.633Z,94.38
2023-02-19T23:19:31.095Z,94.82
2023-02-19T23:22:35.191Z,95.04
2023-02-19T23:25:38.200Z,95.03
2023-02-19T23:28:42.041Z,95.17
2023-02-19T23:31:45.238Z,95.34
2023-02-19T23:34:48.388Z,94.97
2023-02-19T23:37:51.404Z,94.40
2023-02-19T23:40:54.508Z,95.08
2023-02-19T23:43:57.462Z,94.96
2023-02-19T23:47:00.238Z,95.19
2023-02-19T23:50:03.257Z,95.22
2023-02-19T23:53:07.820Z,95.15
2023-02-19T23:56:11.234Z,95.69
2023-02-19T23:59:14.465Z,95.50
